Time;durP1;ratioP1;P1;durP2;ratioP2;P2;SDS_P1;SDS_P2;PMS_P1;PMS_P2;Temp;Humidity;BMP_temperature;BMP_pressure;BME280_temperature;BME280_humidity;BME280_pressure;Samples;Min_cycle;Max_cycle;Signal;HPM_P1;HPM_P2
2022/10/26 00:01:06;;;;;;;0.20;0.20;;;10.50;99.90;;;;;;5001071;28;20519;-80
2022/10/26 00:03:34;;;;;;;0.20;0.20;;;10.60;99.90;;;;;;5008779;28;20180;-80
2022/10/26 00:06:05;;;;;;;0.20;0.20;;;10.50;99.90;;;;;;5006312;28;20451;-80
2022/10/26 00:08:30;;;;;;;0.20;0.20;;;10.50;99.90;;;;;;4994477;28;21057;-80
2022/10/26 00:10:56;;;;;;;0.20;0.20;;;10.50;99.90;;;;;;5003259;28;20443;-80
2022/10/26 00:13:22;;;;;;;0.20;0.20;;;10.50;99.90;;;;;;4992980;28;20239;-80
2022/10/26 00:15:48;;;;;;;0.20;0.20;;;10.50;99.90;;;;;;5009151;28;20443;-80
2022/10/26 00:18:13;;;;;;;0.20;0.20;;;10.60;99.90;;;;;;5009576;28;20195;-80
2022/10/26 00:20:39;;;;;;;0.20;0.20;;;10.60;99.90;;;;;;5007836;28;20216;-80
2022/10/26 00:23:04;;;;;;;0.20;0.20;;;10.50;99.90;;;;;;5007509;28;20207;-78
2022/10/26 00:25:30;;;;;;;0.20;0.20;;;10.50;99.90;;;;;;4987895;28;20199;-79
2022/10/26 00:27:55;;;;;;;0.20;0.20;;;10.50;99.90;;;;;;5005310;28;20690;-78
2022/10/26 00:30:21;;;;;;;0.20;0.20;;;10.60;99.90;;;;;;4998231;28;20657;-79
2022/10/26 00:32:46;;;;;;;0.20;0.20;;;10.60;99.90;;;;;;5004338;28;20193;-79
2022/10/26 00:35:12;;;;;;;0.20;0.20;;;10.60;99.90;;;;;;4973505;28;20628;-79
2022/10/26 00:37:37;;;;;;;0.20;0.20;;;10.50;99.90;;;;;;4988188;28;20652;-79
2022/10/26 00:40:03;;;;;;;0.20;0.20;;;10.50;99.90;;;;;;5004438;28;20254;-79
2022/10/26 00:42:29;;;;;;;0.20;0.20;;;10.40;99.90;;;;;;5004650;28;20200;-79
2022/10/26 00:44:57;;;;;;;0.20;0.20;;;10.50;99.90;;;;;;5003558;28;20263;-79
2022/10/26 00:47:45;;;;;;;0.20;0.20;;;10.40;99.90;;;;;;4986042;28;20197;-79
2022/10/26 00:50:36;;;;;;;0.20;0.20;;;10.40;99.90;;;;;;4981147;28;20451;-79
2022/10/26 00:53:04;;;;;;;0.20;0.20;;;10.40;99.90;;;;;;5001936;28;20473;-79
2022/10/26 00:55:33;;;;;;;0.20;0.20;;;10.40;99.90;;;;;;5005073;28;20752;-79
2022/10/26 00:58:01;;;;;;;0.20;0.20;;;10.30;99.90;;;;;;5007485;28;20439;-79
2022/10/26 01:00:26;;;;;;;0.20;0.20;;;10.30;99.90;;;;;;5003389;28;22038;-78
2022/10/26 01:02:55;;;;;;;0.20;0.20;;;10.20;99.90;;;;;;4990535;28;20455;-78
2022/10/26 01:05:21;;;;;;;0.20;0.20;;;10.20;99.90;;;;;;5006582;28;20273;-78
2022/10/26 01:07:47;;;;;;;0.20;0.20;;;10.20;99.90;;;;;;5004704;28;20463;-79
2022/10/26 01:10:15;;;;;;;0.20;0.20;;;10.20;99.90;;;;;;4987087;28;20254;-79
2022/10/26 01:12:41;;;;;;;0.20;0.20;;;10.20;99.90;;;;;;5006920;28;20475;-79
2022/10/26 01:15:07;;;;;;;0.20;0.20;;;10.20;99.90;;;;;;4988815;28;20447;-79
2022/10/26 01:17:54;;;;;;;0.20;0.20;;;10.20;99.90;;;;;;5003715;28;20457;-78
2022/10/26 01:20:49;;;;;;;0.20;0.20;;;10.20;99.90;;;;;;4987172;28;20856;-78
2022/10/26 01:23:42;;;;;;;0.20;0.20;;;10.10;99.90;;;;;;4984319;28;20482;-78
2022/10/26 01:26:26;;;;;;;0.20;0.20;;;10.10;99.90;;;;;;4995787;28;20845;-79
2022/10/26 01:29:03;;;;;;;0.20;0.20;;;10.10;99.90;;;;;;4981498;28;20458;-79
2022/10/26 01:31:37;;;;;;;0.20;0.20;;;10.10;99.90;;;;;;5005190;28;20524;-79
2022/10/26 01:34:19;;;;;;;0.20;0.20;;;10.10;99.90;;;;;;5005336;28;22107;-80
2022/10/26 01:40:27;;;;;;;0.20;0.20;;;10.10;99.90;;;;;;4983461;28;20509;-78
2022/10/26 01:42:56;;;;;;;0.20;0.20;;;10.10;99.90;;;;;;5005862;28;20453;-79
2022/10/26 01:45:23;;;;;;;0.20;0.20;;;10.10;99.90;;;;;;5009613;28;20454;-78
2022/10/26 01:47:50;;;;;;;0.20;0.20;;;10.10;99.90;;;;;;4995860;28;20447;-78
2022/10/26 01:50:18;;;;;;;0.20;0.20;;;10.10;99.90;;;;;;4990196;28;20470;-79
2022/10/26 01:52:44;;;;;;;0.20;0.20;;;10.10;99.90;;;;;;5010772;28;20490;-78
2022/10/26 01:55:35;;;;;;;0.20;0.20;;;10.10;99.90;;;;;;4990457;28;20451;-78
2022/10/26 01:58:26;;;;;;;0.20;0.20;;;10.00;99.90;;;;;;4997529;28;20196;-79
2022/10/26 02:01:20;;;;;;;0.20;0.20;;;10.00;99.90;;;;;;5009823;28;20463;-79
2022/10/26 02:04:23;;;;;;;0.20;0.20;;;10.00;99.90;;;;;;5010244;28;20455;-78
2022/10/26 02:07:14;;;;;;;0.20;0.20;;;10.00;99.90;;;;;;5010657;28;20562;-78
2022/10/26 02:10:02;;;;;;;0.20;0.20;;;10.00;99.90;;;;;;4996562;28;20514;-78
2022/10/26 02:12:43;;;;;;;0.20;0.20;;;10.00;99.90;;;;;;5008123;28;20489;-78
2022/10/26 02:15:21;;;;;;;0.20;0.20;;;10.00;99.90;;;;;;5005027;28;20449;-78
2022/10/26 02:17:58;;;;;;;0.20;0.20;;;9.90;99.90;;;;;;4994193;28;20548;-79
2022/10/26 02:20:30;;;;;;;0.20;0.20;;;9.90;99.90;;;;;;5007606;28;20517;-78
2022/10/26 02:22:56;;;;;;;0.20;0.20;;;10.00;99.90;;;;;;4988953;28;20509;-78
2022/10/26 02:25:30;;;;;;;0.20;0.20;;;9.90;99.90;;;;;;5007798;28;20534;-78
2022/10/26 02:28:01;;;;;;;0.20;0.20;;;9.90;99.90;;;;;;5010672;28;20458;-78
2022/10/26 02:30:27;;;;;;;0.20;0.20;;;9.90;99.90;;;;;;5007389;28;20455;-77
2022/10/26 02:32:56;;;;;;;0.20;0.20;;;9.90;99.90;;;;;;5008639;28;20526;-78
2022/10/26 02:35:27;;;;;;;0.20;0.20;;;9.90;99.90;;;;;;5004962;28;20455;-78
2022/10/26 02:37:57;;;;;;;0.20;0.20;;;9.80;99.90;;;;;;5009762;28;20934;-78
2022/10/26 02:40:25;;;;;;;0.30;0.30;;;9.80;99.90;;;;;;4989890;28;21460;-79
2022/10/26 02:42:52;;;;;;;0.20;0.20;;;9.80;99.90;;;;;;4993432;28;20939;-77
2022/10/26 02:45:23;;;;;;;0.20;0.20;;;9.80;99.90;;;;;;5004607;28;20439;-78
2022/10/26 02:47:50;;;;;;;0.20;0.20;;;9.70;99.90;;;;;;5009118;28;20459;-78
2022/10/26 02:50:15;;;;;;;0.20;0.20;;;9.80;99.90;;;;;;5004941;28;20509;-78
2022/10/26 02:52:48;;;;;;;0.20;0.20;;;9.70;99.90;;;;;;5005670;28;20801;-77
2022/10/26 02:55:24;;;;;;;0.20;0.20;;;9.70;99.90;;;;;;4992380;28;20609;-78
2022/10/26 02:57:58;;;;;;;0.20;0.20;;;9.70;99.90;;;;;;5006382;28;20468;-78
2022/10/26 03:00:23;;;;;;;0.20;0.20;;;9.70;99.90;;;;;;5007104;28;20447;-78
2022/10/26 03:02:56;;;;;;;0.20;0.20;;;9.70;99.90;;;;;;5008516;28;20490;-78
2022/10/26 03:05:23;;;;;;;0.20;0.20;;;9.70;99.90;;;;;;5003697;28;20188;-78
2022/10/26 03:07:48;;;;;;;0.20;0.20;;;9.70;99.90;;;;;;5009420;28;20449;-78
2022/10/26 03:10:14;;;;;;;0.20;0.20;;;9.70;99.90;;;;;;5005241;28;21096;-78
2022/10/26 03:12:39;;;;;;;0.20;0.20;;;9.60;99.90;;;;;;5003303;28;20192;-78
2022/10/26 03:15:06;;;;;;;0.20;0.20;;;9.70;99.90;;;;;;5007755;28;20701;-78
2022/10/26 03:17:31;;;;;;;0.20;0.20;;;9.70;99.90;;;;;;5011400;28;20196;-79
2022/10/26 03:19:57;;;;;;;0.20;0.20;;;9.70;99.90;;;;;;5008896;28;20448;-78
2022/10/26 03:22:22;;;;;;;0.20;0.20;;;9.60;99.90;;;;;;5008620;28;20216;-79
2022/10/26 03:24:48;;;;;;;0.20;0.20;;;9.60;99.90;;;;;;5005715;28;20741;-78
2022/10/26 03:27:14;;;;;;;0.20;0.20;;;9.60;99.90;;;;;;5006171;28;20235;-78
2022/10/26 03:29:39;;;;;;;0.20;0.20;;;9.60;99.90;;;;;;5006332;28;20196;-78
2022/10/26 03:32:05;;;;;;;0.20;0.20;;;9.60;99.90;;;;;;5006813;28;20451;-78
2022/10/26 03:34:31;;;;;;;0.20;0.20;;;9.60;99.90;;;;;;5008159;28;20195;-78
2022/10/26 03:36:56;;;;;;;0.20;0.20;;;9.50;99.90;;;;;;5007198;28;20447;-78
2022/10/26 03:39:22;;;;;;;0.20;0.20;;;9.50;99.90;;;;;;5003861;28;20232;-78
2022/10/26 03:41:47;;;;;;;0.20;0.20;;;9.50;99.90;;;;;;5010681;28;20738;-75
2022/10/26 03:44:13;;;;;;;0.20;0.20;;;9.50;99.90;;;;;;5003006;28;20267;-78
2022/10/26 03:46:38;;;;;;;0.20;0.20;;;9.40;99.90;;;;;;5009481;28;20927;-77
2022/10/26 03:49:04;;;;;;;0.20;0.20;;;9.50;99.90;;;;;;5008770;28;20188;-78
2022/10/26 03:51:30;;;;;;;0.20;0.20;;;9.40;99.90;;;;;;5005124;28;20200;-77
2022/10/26 03:53:55;;;;;;;0.20;0.20;;;9.40;99.90;;;;;;5005747;28;20193;-78
2022/10/26 03:56:21;;;;;;;0.20;0.20;;;9.40;99.90;;;;;;5004932;28;20300;-77
2022/10/26 03:58:46;;;;;;;0.20;0.20;;;9.40;99.90;;;;;;5006393;28;20547;-78
2022/10/26 04:01:12;;;;;;;0.20;0.20;;;9.40;99.90;;;;;;4986547;28;20940;-78
2022/10/26 04:03:37;;;;;;;0.20;0.20;;;9.40;99.90;;;;;;4986664;28;20184;-77
2022/10/26 04:06:03;;;;;;;0.20;0.20;;;9.40;99.90;;;;;;5005373;28;20704;-77
2022/10/26 04:08:28;;;;;;;0.20;0.20;;;9.40;99.90;;;;;;4988442;28;20184;-77
2022/10/26 04:10:54;;;;;;;0.20;0.20;;;9.30;99.90;;;;;;4991405;28;20251;-78
2022/10/26 04:13:19;;;;;;;0.20;0.20;;;9.40;99.90;;;;;;5005182;28;20688;-77
2022/10/26 04:15:45;;;;;;;0.20;0.20;;;9.30;99.90;;;;;;5008543;28;20204;-77
2022/10/26 04:18:11;;;;;;;0.20;0.20;;;9.30;99.90;;;;;;5005887;28;20271;-77
2022/10/26 04:20:37;;;;;;;0.20;0.20;;;9.30;99.90;;;;;;4999349;28;20703;-77
2022/10/26 04:23:05;;;;;;;0.20;0.20;;;9.30;99.90;;;;;;4986734;28;20447;-77
2022/10/26 04:25:32;;;;;;;0.20;0.20;;;9.30;99.90;;;;;;5007610;28;20497;-77
2022/10/26 04:27:59;;;;;;;0.20;0.20;;;9.30;99.90;;;;;;5006070;28;20450;-77
2022/10/26 04:30:25;;;;;;;0.20;0.20;;;9.30;99.90;;;;;;5001692;28;20565;-75
2022/10/26 04:32:50;;;;;;;0.20;0.20;;;9.20;99.90;;;;;;5008082;28;20439;-78
2022/10/26 04:35:16;;;;;;;0.20;0.20;;;9.20;99.90;;;;;;5005060;28;20466;-76
2022/10/26 04:37:42;;;;;;;0.20;0.20;;;9.20;99.90;;;;;;5007949;28;20192;-75
2022/10/26 04:40:07;;;;;;;0.20;0.20;;;9.20;99.90;;;;;;5004181;28;20490;-76
2022/10/26 04:42:43;;;;;;;0.20;0.20;;;9.20;99.90;;;;;;5004764;28;21503;-78
2022/10/26 04:45:10;;;;;;;0.20;0.20;;;9.20;99.90;;;;;;5003945;28;20442;-78
2022/10/26 04:47:36;;;;;;;0.20;0.20;;;9.20;99.90;;;;;;5008446;28;20501;-78
2022/10/26 04:50:01;;;;;;;0.30;0.30;;;9.20;99.90;;;;;;5001594;28;20802;-79
2022/10/26 04:52:27;;;;;;;0.20;0.20;;;9.20;99.90;;;;;;5005836;28;21290;-77
2022/10/26 04:54:52;;;;;;;0.20;0.20;;;9.20;99.90;;;;;;5003224;28;20600;-78
2022/10/26 04:57:18;;;;;;;0.30;0.30;;;9.20;99.90;;;;;;5002353;28;20242;-78
2022/10/26 04:59:43;;;;;;;0.20;0.20;;;9.20;99.90;;;;;;5009001;28;20249;-79
2022/10/26 05:02:09;;;;;;;0.20;0.20;;;9.20;99.90;;;;;;5002892;28;20223;-78
2022/10/26 05:04:34;;;;;;;0.20;0.20;;;9.10;99.90;;;;;;4987897;28;20673;-78
2022/10/26 05:07:00;;;;;;;0.20;0.20;;;9.10;99.90;;;;;;5006688;28;20254;-77
2022/10/26 05:09:25;;;;;;;0.20;0.20;;;9.10;99.90;;;;;;4987960;28;20718;-79
2022/10/26 05:11:51;;;;;;;0.20;0.20;;;9.10;99.90;;;;;;4985375;28;22801;-79
2022/10/26 05:14:16;;;;;;;0.20;0.20;;;9.10;99.90;;;;;;5004812;28;20203;-78
2022/10/26 05:16:43;;;;;;;0.20;0.20;;;9.10;99.90;;;;;;5002851;28;20706;-79
2022/10/26 05:19:09;;;;;;;0.20;0.20;;;9.10;99.90;;;;;;4993938;28;20188;-78
2022/10/26 05:21:34;;;;;;;0.20;0.20;;;9.10;99.90;;;;;;5014111;28;20475;-78
2022/10/26 05:24:00;;;;;;;0.20;0.20;;;9.10;99.90;;;;;;5009470;28;20259;-78
2022/10/26 05:26:26;;;;;;;0.20;0.20;;;9.10;99.90;;;;;;5009864;28;20203;-77
2022/10/26 05:28:52;;;;;;;0.30;0.30;;;9.10;99.90;;;;;;5002376;28;20192;-78
2022/10/26 05:31:18;;;;;;;0.20;0.20;;;9.10;99.90;;;;;;4992083;28;20220;-78
2022/10/26 05:33:43;;;;;;;0.20;0.20;;;9.10;99.90;;;;;;5010772;28;20446;-78
2022/10/26 05:36:09;;;;;;;0.20;0.20;;;9.10;99.90;;;;;;5004837;28;20442;-77
2022/10/26 05:38:34;;;;;;;0.20;0.20;;;9.00;99.90;;;;;;5010060;28;20224;-77
2022/10/26 05:41:03;;;;;;;0.20;0.20;;;9.00;99.90;;;;;;5008686;28;20592;-78
2022/10/26 05:43:29;;;;;;;0.23;0.23;;;9.10;99.90;;;;;;5007839;28;20208;-78
2022/10/26 05:45:54;;;;;;;0.20;0.20;;;9.00;99.90;;;;;;5008736;28;20443;-78
2022/10/26 05:48:20;;;;;;;0.20;0.20;;;9.10;99.90;;;;;;4987795;28;20448;-77
2022/10/26 05:50:46;;;;;;;0.20;0.20;;;9.10;99.90;;;;;;4986895;28;20280;-78
2022/10/26 05:53:11;;;;;;;0.20;0.20;;;9.00;99.90;;;;;;5006480;28;20526;-77
2022/10/26 05:55:37;;;;;;;0.20;0.20;;;9.00;99.90;;;;;;5000804;28;20644;-78
2022/10/26 05:58:03;;;;;;;0.20;0.20;;;9.00;99.90;;;;;;5008903;28;20656;-77
2022/10/26 06:00:29;;;;;;;0.20;0.20;;;9.00;99.90;;;;;;5007272;28;20193;-78
2022/10/26 06:03:30;;;;;;;0.20;0.20;;;9.00;99.90;;;;;;4992269;28;20199;-78
2022/10/26 06:05:58;;;;;;;0.20;0.20;;;9.00;99.90;;;;;;4984233;28;20454;-78
2022/10/26 06:08:26;;;;;;;0.20;0.20;;;9.00;99.90;;;;;;4994482;28;20449;-75
2022/10/26 06:10:53;;;;;;;0.30;0.30;;;9.00;99.90;;;;;;5003900;28;20467;-76
2022/10/26 06:13:18;;;;;;;0.20;0.20;;;8.90;99.90;;;;;;5007804;28;20439;-78
2022/10/26 06:15:58;;;;;;;0.20;0.20;;;9.00;99.90;;;;;;5007390;28;20458;-77
2022/10/26 06:18:42;;;;;;;0.30;0.30;;;9.00;99.90;;;;;;4997931;28;20199;-78
2022/10/26 06:21:17;;;;;;;0.20;0.20;;;9.00;99.90;;;;;;5003068;28;20483;-78
2022/10/26 06:23:57;;;;;;;0.30;0.30;;;9.00;99.90;;;;;;4991085;28;20529;-78
2022/10/26 06:26:37;;;;;;;0.27;0.27;;;9.00;99.90;;;;;;5011881;28;20430;-78
2022/10/26 06:29:13;;;;;;;0.20;0.20;;;8.90;99.90;;;;;;5006572;28;20477;-78
2022/10/26 06:31:38;;;;;;;0.20;0.20;;;8.80;99.90;;;;;;5011526;28;20516;-79
2022/10/26 06:34:04;;;;;;;0.20;0.20;;;8.80;99.90;;;;;;5010637;28;21441;-79
2022/10/26 06:36:30;;;;;;;0.20;0.20;;;8.50;99.90;;;;;;5002035;28;20683;-78
2022/10/26 06:39:06;;;;;;;0.20;0.20;;;8.60;99.90;;;;;;4963614;28;1120868;-79
2022/10/26 06:41:34;;;;;;;0.20;0.20;;;8.50;99.90;;;;;;5007309;28;20227;-75
2022/10/26 06:44:01;;;;;;;0.20;0.20;;;8.50;99.90;;;;;;5008242;28;20452;-78
2022/10/26 06:46:46;;;;;;;0.20;0.20;;;8.70;99.90;;;;;;5009067;28;20497;-78
2022/10/26 06:49:42;;;;;;;0.20;0.20;;;8.80;99.90;;;;;;5009143;28;20447;-77
2022/10/26 06:52:19;;;;;;;0.20;0.20;;;8.80;99.90;;;;;;5006861;28;20531;-78
2022/10/26 06:54:48;;;;;;;0.20;0.20;;;8.80;99.90;;;;;;5008020;28;20885;-77
2022/10/26 06:57:16;;;;;;;0.20;0.20;;;8.80;99.90;;;;;;5009768;28;20526;-77
2022/10/26 06:59:52;;;;;;;0.23;0.23;;;8.90;99.90;;;;;;5008134;28;20482;-78
2022/10/26 07:02:19;;;;;;;0.20;0.20;;;8.80;99.90;;;;;;5009044;28;20577;-77
2022/10/26 07:04:45;;;;;;;0.20;0.20;;;8.90;99.90;;;;;;5007130;28;21141;-77
2022/10/26 07:07:22;;;;;;;0.20;0.20;;;8.90;99.90;;;;;;5012014;28;20459;-77
2022/10/26 07:09:48;;;;;;;0.30;0.30;;;8.90;99.90;;;;;;4989375;28;20777;-78
2022/10/26 07:12:14;;;;;;;0.20;0.20;;;8.90;99.90;;;;;;5009594;28;20458;-77
2022/10/26 07:14:39;;;;;;;0.20;0.20;;;9.00;99.90;;;;;;5009703;28;20470;-77
2022/10/26 07:17:05;;;;;;;0.20;0.20;;;9.00;99.90;;;;;;5007513;28;20188;-77
2022/10/26 07:19:31;;;;;;;0.20;0.20;;;9.10;99.90;;;;;;5007112;28;20755;-77
2022/10/26 07:22:00;;;;;;;0.20;0.20;;;9.10;99.90;;;;;;5005789;28;20494;-77
2022/10/26 07:24:27;;;;;;;0.20;0.20;;;9.10;99.90;;;;;;5001816;28;20275;-77
2022/10/26 07:26:54;;;;;;;0.20;0.20;;;9.20;99.90;;;;;;5007227;28;20439;-78
2022/10/26 07:29:20;;;;;;;0.20;0.20;;;9.30;99.90;;;;;;5005633;28;20447;-78
2022/10/26 07:31:46;;;;;;;0.20;0.20;;;9.40;99.90;;;;;;5009750;28;20479;-77
2022/10/26 07:34:11;;;;;;;0.20;0.20;;;9.50;99.90;;;;;;5006937;28;20532;-78
2022/10/26 07:36:37;;;;;;;0.20;0.20;;;9.60;99.90;;;;;;5007238;28;20200;-77
2022/10/26 07:39:03;;;;;;;0.20;0.20;;;9.80;99.90;;;;;;5008599;28;20243;-78
2022/10/26 07:41:29;;;;;;;0.20;0.20;;;9.90;99.90;;;;;;5007131;28;20872;-78
2022/10/26 07:43:54;;;;;;;0.20;0.20;;;10.00;99.90;;;;;;5008025;28;20505;-78
2022/10/26 07:46:20;;;;;;;0.20;0.20;;;10.20;99.90;;;;;;5005261;28;20549;-78
2022/10/26 07:48:45;;;;;;;0.20;0.20;;;10.30;99.90;;;;;;5007256;28;20189;-78
2022/10/26 07:51:11;;;;;;;0.20;0.20;;;10.40;99.90;;;;;;5007236;28;20190;-77
2022/10/26 07:53:37;;;;;;;0.20;0.20;;;10.50;99.90;;;;;;5009483;28;20195;-78
2022/10/26 07:56:03;;;;;;;0.20;0.20;;;10.60;99.90;;;;;;5009650;28;21014;-78
2022/10/26 07:58:30;;;;;;;0.20;0.20;;;10.60;99.90;;;;;;5008291;28;20757;-78
2022/10/26 08:00:56;;;;;;;0.20;0.20;;;10.70;99.90;;;;;;5005859;28;20478;-78
2022/10/26 08:03:22;;;;;;;0.20;0.20;;;10.70;99.90;;;;;;5004610;28;20442;-78
2022/10/26 08:05:54;;;;;;;0.20;0.20;;;10.60;99.90;;;;;;5007892;28;20188;-78
2022/10/26 08:08:20;;;;;;;0.20;0.20;;;10.50;99.90;;;;;;5007616;28;20180;-78
2022/10/26 08:10:46;;;;;;;0.20;0.20;;;10.50;99.90;;;;;;5004563;28;20454;-78
2022/10/26 08:13:12;;;;;;;0.20;0.20;;;10.70;99.90;;;;;;5003329;28;20557;-78
2022/10/26 08:15:38;;;;;;;0.20;0.20;;;10.80;99.90;;;;;;5005172;28;20486;-78
2022/10/26 08:18:04;;;;;;;0.20;0.20;;;10.90;99.90;;;;;;4990094;28;20446;-78
2022/10/26 08:20:30;;;;;;;0.20;0.20;;;11.00;99.90;;;;;;5005143;28;20673;-77
2022/10/26 08:22:56;;;;;;;0.20;0.20;;;11.00;99.90;;;;;;5003633;28;20589;-79
2022/10/26 08:25:21;;;;;;;0.20;0.20;;;11.10;99.90;;;;;;5008974;28;20556;-79
2022/10/26 08:27:47;;;;;;;0.20;0.20;;;11.30;99.90;;;;;;5010827;28;20442;-79
2022/10/26 08:30:13;;;;;;;0.20;0.20;;;11.40;99.90;;;;;;5003912;28;20188;-79
2022/10/26 08:32:38;;;;;;;0.20;0.20;;;11.60;99.90;;;;;;5008338;28;20612;-78
2022/10/26 08:35:04;;;;;;;0.20;0.20;;;11.90;99.90;;;;;;5008662;28;20683;-78
2022/10/26 08:37:30;;;;;;;0.17;0.17;;;11.90;99.90;;;;;;5007543;28;20200;-78
2022/10/26 08:39:55;;;;;;;0.10;0.10;;;12.00;99.90;;;;;;5006945;28;20239;-78
2022/10/26 08:42:31;;;;;;;0.10;0.10;;;12.20;99.90;;;;;;4990422;28;20223;-78
2022/10/26 08:45:06;;;;;;;0.10;0.10;;;12.30;99.90;;;;;;5009247;28;20660;-78
2022/10/26 08:47:42;;;;;;;0.10;0.10;;;12.60;99.90;;;;;;4988614;28;20451;-78
2022/10/26 08:50:23;;;;;;;0.10;0.10;;;12.70;99.90;;;;;;4999829;28;20443;-78
2022/10/26 08:52:57;;;;;;;0.10;0.10;;;12.90;99.90;;;;;;5006176;28;20463;-78
2022/10/26 08:55:27;;;;;;;0.10;0.10;;;12.90;99.90;;;;;;5005722;28;20923;-78
2022/10/26 08:57:53;;;;;;;0.10;0.10;;;12.80;99.90;;;;;;4998641;28;20455;-79
2022/10/26 09:00:21;;;;;;;0.10;0.10;;;12.90;99.90;;;;;;5004259;28;20470;-79
2022/10/26 09:02:51;;;;;;;0.10;0.10;;;12.90;99.90;;;;;;5007692;28;20458;-78
2022/10/26 09:05:27;;;;;;;0.10;0.10;;;13.40;99.90;;;;;;5005585;28;20961;-79
2022/10/26 09:08:13;;;;;;;0.10;0.10;;;13.40;99.90;;;;;;5000584;28;20439;-80
2022/10/26 09:11:05;;;;;;;0.10;0.10;;;13.60;99.90;;;;;;5001518;28;20458;-80
2022/10/26 09:13:44;;;;;;;0.20;0.20;;;13.70;99.90;;;;;;4984354;28;20451;-79
2022/10/26 09:16:37;;;;;;;0.10;0.10;;;13.90;99.90;;;;;;5001794;28;20446;-78
2022/10/26 09:19:14;;;;;;;0.10;0.10;;;13.90;99.90;;;;;;4988747;28;20814;-79
2022/10/26 09:21:48;;;;;;;0.10;0.10;;;14.00;99.90;;;;;;5004862;28;20910;-80
2022/10/26 09:24:20;;;;;;;0.10;0.10;;;14.30;99.90;;;;;;5000522;28;20451;-79
2022/10/26 09:26:53;;;;;;;0.10;0.10;;;14.20;99.90;;;;;;5005189;28;20541;-79
2022/10/26 09:29:23;;;;;;;0.10;0.10;;;14.30;99.90;;;;;;5009638;28;20438;-80
2022/10/26 09:31:52;;;;;;;0.10;0.10;;;14.60;99.90;;;;;;5005098;28;20443;-79
2022/10/26 09:34:36;;;;;;;0.10;0.10;;;14.70;99.90;;;;;;5002912;28;20451;-79
2022/10/26 09:37:14;;;;;;;0.10;0.10;;;14.70;99.90;;;;;;4992543;28;20439;-78
2022/10/26 09:39:50;;;;;;;0.10;0.10;;;14.80;99.90;;;;;;5004423;28;21066;-79
2022/10/26 09:42:39;;;;;;;0.10;0.10;;;14.90;99.90;;;;;;4995403;28;20494;-79
2022/10/26 09:45:17;;;;;;;0.10;0.10;;;15.10;99.90;;;;;;4985392;28;21197;-82
2022/10/26 09:47:51;;;;;;;0.10;0.10;;;15.80;99.90;;;;;;4989475;28;20816;-81
2022/10/26 09:50:25;;;;;;;0.10;0.10;;;16.10;99.90;;;;;;4999665;28;20447;-79
2022/10/26 09:52:51;;;;;;;0.10;0.10;;;16.40;99.90;;;;;;4987151;28;20454;-79
2022/10/26 09:55:17;;;;;;;0.10;0.10;;;16.30;99.90;;;;;;5008171;28;20447;-81
2022/10/26 09:57:45;;;;;;;0.10;0.10;;;16.50;99.90;;;;;;5005292;28;20188;-81
2022/10/26 10:00:24;;;;;;;0.10;0.10;;;16.80;99.90;;;;;;5005336;28;20446;-81
2022/10/26 10:02:55;;;;;;;0.10;0.10;;;16.60;99.90;;;;;;5000770;28;20989;-81
2022/10/26 10:05:27;;;;;;;0.10;0.10;;;16.60;99.90;;;;;;5011647;28;20939;-82
2022/10/26 10:08:08;;;;;;;0.10;0.10;;;16.80;99.90;;;;;;4997666;28;20856;-80
2022/10/26 10:10:34;;;;;;;0.10;0.10;;;16.90;99.90;;;;;;5006865;28;20427;-81
2022/10/26 10:13:19;;;;;;;0.10;0.10;;;17.10;99.90;;;;;;4994021;28;20482;-81
2022/10/26 10:15:58;;;;;;;0.10;0.10;;;17.40;99.90;;;;;;4987749;28;20189;-83
2022/10/26 10:18:24;;;;;;;0.10;0.10;;;17.50;99.90;;;;;;4994085;28;20490;-82
2022/10/26 10:20:55;;;;;;;0.10;0.10;;;17.50;99.90;;;;;;4982002;28;20463;-83
2022/10/26 10:23:26;;;;;;;0.10;0.10;;;17.60;99.90;;;;;;4993027;28;20199;-81
2022/10/26 10:26:06;;;;;;;0.10;0.10;;;18.00;99.90;;;;;;5005276;28;20966;-83
2022/10/26 10:28:32;;;;;;;0.10;0.10;;;18.20;99.90;;;;;;4996826;28;20988;-82
2022/10/26 10:31:01;;;;;;;0.10;0.10;;;18.40;99.90;;;;;;5010009;28;20990;-84
2022/10/26 10:33:53;;;;;;;0.10;0.10;;;18.20;99.90;;;;;;4992257;28;20443;-84
2022/10/26 10:36:21;;;;;;;0.10;0.10;;;18.10;99.90;;;;;;5004301;28;20469;-84
2022/10/26 10:38:49;;;;;;;0.10;0.10;;;18.30;99.90;;;;;;5011265;28;20476;-83
2022/10/26 10:41:16;;;;;;;0.10;0.10;;;18.50;99.90;;;;;;5006903;28;21391;-83
2022/10/26 10:43:53;;;;;;;0.10;0.00;;;18.50;99.90;;;;;;5003844;28;20436;-84
2022/10/26 10:46:21;;;;;;;0.10;0.10;;;18.40;99.90;;;;;;5004260;28;20461;-83
2022/10/26 10:48:50;;;;;;;0.10;0.10;;;18.10;99.90;;;;;;5012001;28;20423;-83
2022/10/26 10:51:23;;;;;;;0.10;0.10;;;18.30;99.90;;;;;;5008032;28;20455;-83
2022/10/26 10:53:50;;;;;;;0.10;0.00;;;18.70;99.90;;;;;;5008589;28;20447;-83
2022/10/26 10:56:35;;;;;;;0.10;0.10;;;18.40;99.90;;;;;;5001560;28;20454;-84
2022/10/26 10:59:36;;;;;;;0.10;0.00;;;18.70;99.90;;;;;;5006705;28;20815;-83
2022/10/26 11:02:29;;;;;;;0.10;0.00;;;19.10;99.90;;;;;;5001535;28;20593;-83
2022/10/26 11:05:17;;;;;;;0.10;0.00;;;19.80;99.90;;;;;;4986171;28;20451;-83
2022/10/26 11:08:11;;;;;;;0.10;0.00;;;20.00;99.90;;;;;;5005350;28;20533;-83
2022/10/26 11:10:40;;;;;;;0.10;0.00;;;20.60;99.90;;;;;;4991881;28;20444;-84
2022/10/26 11:13:20;;;;;;;0.10;0.10;;;20.50;99.90;;;;;;5004637;28;20442;-83
2022/10/26 11:15:50;;;;;;;0.10;0.00;;;19.90;99.90;;;;;;4985688;28;20505;-83
2022/10/26 11:18:35;;;;;;;0.10;0.10;;;19.70;99.90;;;;;;5019110;28;20803;-83
2022/10/26 11:21:05;;;;;;;0.10;0.00;;;19.00;99.90;;;;;;5010248;28;20487;-83
2022/10/26 11:23:40;;;;;;;0.10;0.00;;;18.70;99.90;;;;;;5009702;28;20440;-83
2022/10/26 11:26:16;;;;;;;0.10;0.10;;;18.60;99.90;;;;;;5007138;28;20443;-84
2022/10/26 11:29:00;;;;;;;0.10;0.10;;;18.50;99.90;;;;;;5006210;28;20448;-81
2022/10/26 11:31:37;;;;;;;0.10;0.10;;;18.70;99.90;;;;;;5004121;28;20443;-84
2022/10/26 11:34:19;;;;;;;0.10;0.10;;;18.40;99.90;;;;;;4988102;28;20443;-82
2022/10/26 11:36:51;;;;;;;0.10;0.10;;;18.20;99.90;;;;;;4983675;28;20447;-82
2022/10/26 11:39:38;;;;;;;0.10;0.10;;;17.80;99.90;;;;;;4996399;28;20475;-80
2022/10/26 11:42:07;;;;;;;0.10;0.10;;;18.00;99.90;;;;;;5005727;28;20490;-83
2022/10/26 11:44:47;;;;;;;0.10;0.10;;;17.80;99.90;;;;;;4993482;28;20549;-82
2022/10/26 11:47:17;;;;;;;0.10;0.10;;;17.60;99.90;;;;;;5006520;28;20443;-81
2022/10/26 11:49:52;;;;;;;0.10;0.00;;;17.70;99.90;;;;;;5008660;28;21012;-82
2022/10/26 11:52:57;;;;;;;0.10;0.10;;;18.30;99.90;;;;;;4990610;28;21166;-81
2022/10/26 11:55:23;;;;;;;0.10;0.00;;;19.70;99.90;;;;;;4929102;29;21621;-81
2022/10/26 11:57:51;;;;;;;0.10;0.00;;;20.30;99.90;;;;;;4995794;28;20489;-84
2022/10/26 12:00:19;;;;;;;0.10;0.00;;;20.90;99.90;;;;;;4997164;28;20184;-80
2022/10/26 12:03:14;;;;;;;0.10;0.00;;;21.30;99.90;;;;;;5004885;28;20482;-80
2022/10/26 12:05:39;;;;;;;0.10;0.00;;;21.10;99.90;;;;;;4980289;28;20949;-84
2022/10/26 12:08:19;;;;;;;0.10;0.00;;;21.40;99.90;;;;;;5004447;28;20507;-85
2022/10/26 12:10:57;;;;;;;0.10;0.00;;;22.10;99.90;;;;;;4981409;28;20329;-83
2022/10/26 12:13:37;;;;;;;0.10;0.00;;;22.20;99.90;;;;;;4990117;28;20458;-84
2022/10/26 12:16:10;;;;;;;0.10;0.00;;;21.60;99.90;;;;;;5008455;28;20939;-85
2022/10/26 12:18:46;;;;;;;0.10;0.00;;;21.80;99.90;;;;;;5008247;28;20439;-83
2022/10/26 12:21:13;;;;;;;0.10;0.00;;;22.10;99.90;;;;;;4984815;28;20506;-88
2022/10/26 12:24:28;;;;;;;0.10;0.00;;;22.30;99.90;;;;;;4999752;28;20447;-86
2022/10/26 12:26:58;;;;;;;0.10;0.00;;;22.70;99.90;;;;;;4930105;28;20465;-78
2022/10/26 12:29:29;;;;;;;0.10;0.00;;;21.90;99.90;;;;;;4932624;28;20442;-79
2022/10/26 12:31:55;;;;;;;0.10;0.00;;;21.30;99.90;;;;;;4959952;28;20514;-82
2022/10/26 12:34:23;;;;;;;0.10;0.00;;;20.90;99.90;;;;;;4986704;28;20550;-79
2022/10/26 12:36:55;;;;;;;0.10;0.00;;;20.20;99.90;;;;;;5007289;28;20192;-79
2022/10/26 12:39:35;;;;;;;0.10;0.00;;;20.20;99.90;;;;;;5005108;28;20475;-79
2022/10/26 12:42:03;;;;;;;0.10;0.00;;;20.00;99.90;;;;;;5001672;28;21110;-79
2022/10/26 12:44:32;;;;;;;0.10;0.07;;;19.40;99.90;;;;;;4994923;28;20478;-79
2022/10/26 12:46:57;;;;;;;0.10;0.10;;;19.00;99.90;;;;;;4988790;28;20451;-79
2022/10/26 12:49:57;;;;;;;0.10;0.10;;;18.70;99.90;;;;;;5008375;28;20526;-79
2022/10/26 12:52:31;;;;;;;0.10;0.10;;;18.50;99.90;;;;;;4989325;28;20181;-79
2022/10/26 12:55:37;;;;;;;0.10;0.10;;;18.10;99.90;;;;;;5006078;28;20442;-79
2022/10/26 12:58:27;;;;;;;0.10;0.10;;;18.30;99.90;;;;;;4997231;28;20501;-79
2022/10/26 13:00:58;;;;;;;0.10;0.10;;;18.10;99.90;;;;;;5008224;28;20470;-79
2022/10/26 13:03:53;;;;;;;0.10;0.10;;;18.40;99.90;;;;;;4999288;28;20500;-79
2022/10/26 13:07:04;;;;;;;0.10;0.10;;;18.70;99.90;;;;;;4987511;28;21074;-78
2022/10/26 13:09:31;;;;;;;0.10;0.00;;;18.70;99.90;;;;;;4940381;28;21258;-79
2022/10/26 13:12:00;;;;;;;0.10;0.10;;;18.90;99.90;;;;;;4988172;28;20452;-79
2022/10/26 13:14:34;;;;;;;0.10;0.10;;;18.70;99.90;;;;;;5005466;28;20443;-79
2022/10/26 13:17:01;;;;;;;0.10;0.00;;;18.70;99.90;;;;;;4990377;28;20462;-80